메인 페이지
METAR-TAF:

METAR-TAF

공항 :

Ozark, 앨라배마, 미국

위도: 31-17N, 경도: 085-43W, 고도: 91m

현재 날씨관측

예보는 15분 전, 11:46시(UTC)에 발표되었습니다.
무풍
온도 22°C
습도 100%
기압 1018 hPa
시정: 0.2km
안개

METAR: KOZR 201146Z AUTO 00000KT 1/8SM R06/1800V2000FT FG VV002 22/22 A3006 RMK AO2 SLP179

시각: 07:01 (12:01 UTC)

예보

예보는 1 시간 56분 전, 10:05시(UTC)에 발표되었습니다.
예보 대상 시간: 20일 10시부터 21일 14시까지 (UTC)
3kt
시정: 0400m
고도 100ft 상공 구름 많음
고도 5000ft 상공 흐림
안개
전환 중
20일 14시부터 20일 15시까지 (UTC)
서남서6kt
시정 10km 이상
고도 500ft 상공 구름 보통
고도 1000ft 상공 구름 많음
전환 중
20일 20시부터 20일 21시까지 (UTC)
9kt
시정: 8000m
고도 1000ft 상공 구름 보통, 적란운.
고도 16000ft 상공 구름 많음
약한소나기, 시계 내 뇌우
전환 중
21일 05시부터 21일 06시까지 (UTC)
12kt, 순간 최대 풍속 18kt
시정 10km 이상
맑음

TAF: KOZR 201005Z 2010/2114 26003KT 0400 FG BKN001 OVC050 QNH3004INS BECMG 2014/2015 24006KT 9999 NSW SCT005 BKN010 QNH2998INS BECMG 2020/2021 26009KT 8000 -SHRA VCTS SCT010CB BKN160 QNH2999INS BECMG 2105/2106 35012G18KT 9999 NSW SKC QNH3010INS TX28/2019Z TN15/2108Z

4,000개 이상의 공항 관측 자료 및 예보 (METAR 및 TAF 보고).

지도상에서 검색 가능한 기상관측소가 노란 점과 빨간 점으로 표시되어 있습니다.

기상관측소 명을 보려면 표시 위로 마우스를 이동하세요.

날씨 관측과 예보를 보려면 클릭하세요.

지도 변경 : 확대하려면 엑스 표시가 있는 녹색 버튼, 축소하려면 빼기 표시가 있는 녹색 버튼, 다음 페이지의 지도를 보려면 녹색 화살표를 클릭하세요.


METAR-TAF: